sensor_id;sensor_type;location;lat;lon;timestamp;P1;durP1;ratioP1;P2;durP2;ratioP2
79539;SDS011;68991;52.122;5.406;2023-08-06T00:00:51;2.97;;;1.80;;
79539;SDS011;68991;52.122;5.406;2023-08-06T00:03:18;2.38;;;1.50;;
79539;SDS011;68991;52.122;5.406;2023-08-06T00:05:44;3.72;;;1.75;;
79539;SDS011;68991;52.122;5.406;2023-08-06T00:08:11;2.75;;;1.55;;
79539;SDS011;68991;52.122;5.406;2023-08-06T00:10:39;3.22;;;1.52;;
79539;SDS011;68991;52.122;5.406;2023-08-06T00:13:06;1.90;;;1.33;;
79539;SDS011;68991;52.122;5.406;2023-08-06T00:15:32;2.60;;;1.45;;
79539;SDS011;68991;52.122;5.406;2023-08-06T00:17:59;2.35;;;1.80;;
79539;SDS011;68991;52.122;5.406;2023-08-06T00:20:25;2.20;;;1.30;;
79539;SDS011;68991;52.122;5.406;2023-08-06T00:22:52;3.10;;;1.70;;
79539;SDS011;68991;52.122;5.406;2023-08-06T00:25:18;2.20;;;1.70;;
79539;SDS011;68991;52.122;5.406;2023-08-06T00:27:45;3.17;;;1.52;;
79539;SDS011;68991;52.122;5.406;2023-08-06T00:30:12;2.65;;;1.90;;
79539;SDS011;68991;52.122;5.406;2023-08-06T00:32:38;3.22;;;1.85;;
79539;SDS011;68991;52.122;5.406;2023-08-06T00:35:05;2.67;;;1.63;;
79539;SDS011;68991;52.122;5.406;2023-08-06T00:37:32;3.92;;;1.80;;
79539;SDS011;68991;52.122;5.406;2023-08-06T00:39:58;2.70;;;1.83;;
79539;SDS011;68991;52.122;5.406;2023-08-06T00:42:25;2.20;;;1.50;;
79539;SDS011;68991;52.122;5.406;2023-08-06T00:44:51;3.63;;;1.80;;
79539;SDS011;68991;52.122;5.406;2023-08-06T00:47:18;2.00;;;1.60;;
79539;SDS011;68991;52.122;5.406;2023-08-06T00:49:44;2.17;;;1.70;;
79539;SDS011;68991;52.122;5.406;2023-08-06T00:52:11;2.20;;;1.40;;
79539;SDS011;68991;52.122;5.406;2023-08-06T00:54:40;3.10;;;2.00;;
79539;SDS011;68991;52.122;5.406;2023-08-06T00:57:07;2.70;;;1.33;;
79539;SDS011;68991;52.122;5.406;2023-08-06T00:59:35;2.13;;;1.48;;
79539;SDS011;68991;52.122;5.406;2023-08-06T01:02:02;2.95;;;1.58;;
79539;SDS011;68991;52.122;5.406;2023-08-06T01:04:29;3.75;;;1.70;;
79539;SDS011;68991;52.122;5.406;2023-08-06T01:07:03;3.28;;;1.73;;
79539;SDS011;68991;52.122;5.406;2023-08-06T01:15:38;3.38;;;2.08;;
79539;SDS011;68991;52.122;5.406;2023-08-06T01:17:48;4.75;;;1.85;;
79539;SDS011;68991;52.122;5.406;2023-08-06T01:20:14;2.40;;;1.70;;
79539;SDS011;68991;52.122;5.406;2023-08-06T01:22:41;3.00;;;1.88;;
79539;SDS011;68991;52.122;5.406;2023-08-06T01:25:07;2.92;;;2.05;;
79539;SDS011;68991;52.122;5.406;2023-08-06T01:27:43;2.40;;;1.60;;
79539;SDS011;68991;52.122;5.406;2023-08-06T01:30:14;2.65;;;1.50;;
79539;SDS011;68991;52.122;5.406;2023-08-06T01:32:46;2.47;;;1.50;;
79539;SDS011;68991;52.122;5.406;2023-08-06T01:35:17;2.50;;;1.52;;
79539;SDS011;68991;52.122;5.406;2023-08-06T01:37:45;2.22;;;1.55;;
79539;SDS011;68991;52.122;5.406;2023-08-06T01:40:13;3.35;;;1.77;;
79539;SDS011;68991;52.122;5.406;2023-08-06T01:42:39;2.85;;;1.88;;
79539;SDS011;68991;52.122;5.406;2023-08-06T01:45:07;2.00;;;1.50;;
79539;SDS011;68991;52.122;5.406;2023-08-06T01:47:34;2.25;;;1.85;;
79539;SDS011;68991;52.122;5.406;2023-08-06T01:50:01;4.10;;;1.92;;
79539;SDS011;68991;52.122;5.406;2023-08-06T01:52:28;2.95;;;1.88;;
79539;SDS011;68991;52.122;5.406;2023-08-06T01:54:55;2.55;;;1.70;;
79539;SDS011;68991;52.122;5.406;2023-08-06T01:57:21;2.92;;;1.85;;
79539;SDS011;68991;52.122;5.406;2023-08-06T01:59:48;3.50;;;1.90;;
79539;SDS011;68991;52.122;5.406;2023-08-06T02:02:14;2.47;;;1.50;;
79539;SDS011;68991;52.122;5.406;2023-08-06T02:04:41;3.33;;;1.63;;
79539;SDS011;68991;52.122;5.406;2023-08-06T02:07:07;3.22;;;1.88;;
79539;SDS011;68991;52.122;5.406;2023-08-06T02:09:34;3.75;;;1.90;;
79539;SDS011;68991;52.122;5.406;2023-08-06T02:12:01;2.65;;;1.70;;
79539;SDS011;68991;52.122;5.406;2023-08-06T02:14:28;3.88;;;1.83;;
79539;SDS011;68991;52.122;5.406;2023-08-06T02:16:55;3.47;;;1.83;;
79539;SDS011;68991;52.122;5.406;2023-08-06T02:19:21;3.95;;;1.83;;
79539;SDS011;68991;52.122;5.406;2023-08-06T02:21:48;2.58;;;1.52;;
79539;SDS011;68991;52.122;5.406;2023-08-06T02:24:14;2.50;;;1.50;;
79539;SDS011;68991;52.122;5.406;2023-08-06T02:26:41;2.42;;;1.50;;
79539;SDS011;68991;52.122;5.406;2023-08-06T02:29:07;3.25;;;1.85;;
79539;SDS011;68991;52.122;5.406;2023-08-06T02:31:34;3.22;;;1.77;;
79539;SDS011;68991;52.122;5.406;2023-08-06T02:34:00;2.65;;;1.80;;
79539;SDS011;68991;52.122;5.406;2023-08-06T02:36:27;4.38;;;2.15;;
79539;SDS011;68991;52.122;5.406;2023-08-06T02:38:55;2.65;;;1.63;;
79539;SDS011;68991;52.122;5.406;2023-08-06T02:41:22;2.58;;;1.73;;
79539;SDS011;68991;52.122;5.406;2023-08-06T02:43:48;3.20;;;1.88;;
79539;SDS011;68991;52.122;5.406;2023-08-06T02:46:15;2.45;;;1.63;;
79539;SDS011;68991;52.122;5.406;2023-08-06T02:48:42;2.83;;;1.60;;
79539;SDS011;68991;52.122;5.406;2023-08-06T02:51:08;4.05;;;2.15;;
79539;SDS011;68991;52.122;5.406;2023-08-06T02:53:35;2.80;;;1.70;;
79539;SDS011;68991;52.122;5.406;2023-08-06T02:56:01;3.58;;;1.85;;
79539;SDS011;68991;52.122;5.406;2023-08-06T02:58:28;2.47;;;1.80;;
79539;SDS011;68991;52.122;5.406;2023-08-06T03:00:58;3.78;;;1.75;;
79539;SDS011;68991;52.122;5.406;2023-08-06T03:03:33;2.83;;;1.98;;
79539;SDS011;68991;52.122;5.406;2023-08-06T03:06:00;4.03;;;2.00;;
79539;SDS011;68991;52.122;5.406;2023-08-06T03:08:27;2.95;;;1.90;;
79539;SDS011;68991;52.122;5.406;2023-08-06T03:10:54;3.30;;;2.15;;
79539;SDS011;68991;52.122;5.406;2023-08-06T03:13:21;3.30;;;2.10;;
79539;SDS011;68991;52.122;5.406;2023-08-06T03:15:54;2.83;;;2.03;;
79539;SDS011;68991;52.122;5.406;2023-08-06T03:18:22;2.75;;;1.63;;
79539;SDS011;68991;52.122;5.406;2023-08-06T03:20:49;2.53;;;1.75;;
79539;SDS011;68991;52.122;5.406;2023-08-06T03:23:16;2.55;;;1.80;;
79539;SDS011;68991;52.122;5.406;2023-08-06T03:25:42;2.67;;;1.73;;
79539;SDS011;68991;52.122;5.406;2023-08-06T03:28:09;2.90;;;1.95;;
79539;SDS011;68991;52.122;5.406;2023-08-06T03:30:36;3.40;;;1.90;;
79539;SDS011;68991;52.122;5.406;2023-08-06T03:33:03;3.30;;;1.80;;
79539;SDS011;68991;52.122;5.406;2023-08-06T03:35:29;2.88;;;1.70;;
79539;SDS011;68991;52.122;5.406;2023-08-06T03:37:56;3.42;;;1.70;;
79539;SDS011;68991;52.122;5.406;2023-08-06T03:40:22;2.55;;;1.85;;
79539;SDS011;68991;52.122;5.406;2023-08-06T03:42:49;3.65;;;2.22;;
79539;SDS011;68991;52.122;5.406;2023-08-06T03:45:15;2.58;;;1.88;;
79539;SDS011;68991;52.122;5.406;2023-08-06T03:47:42;4.05;;;2.05;;
79539;SDS011;68991;52.122;5.406;2023-08-06T03:50:08;2.67;;;1.73;;
79539;SDS011;68991;52.122;5.406;2023-08-06T03:52:35;2.50;;;1.65;;
79539;SDS011;68991;52.122;5.406;2023-08-06T03:55:02;2.22;;;1.48;;
79539;SDS011;68991;52.122;5.406;2023-08-06T03:57:28;3.00;;;1.67;;
79539;SDS011;68991;52.122;5.406;2023-08-06T03:59:55;3.08;;;1.80;;
79539;SDS011;68991;52.122;5.406;2023-08-06T04:02:21;3.08;;;2.17;;
79539;SDS011;68991;52.122;5.406;2023-08-06T04:04:48;2.05;;;1.45;;
79539;SDS011;68991;52.122;5.406;2023-08-06T04:07:15;2.83;;;1.98;;
79539;SDS011;68991;52.122;5.406;2023-08-06T04:10:00;3.22;;;1.85;;
79539;SDS011;68991;52.122;5.406;2023-08-06T04:12:29;3.20;;;1.67;;
79539;SDS011;68991;52.122;5.406;2023-08-06T04:14:57;2.95;;;1.60;;
79539;SDS011;68991;52.122;5.406;2023-08-06T04:17:24;2.33;;;1.67;;
79539;SDS011;68991;52.122;5.406;2023-08-06T04:19:51;2.92;;;1.92;;
79539;SDS011;68991;52.122;5.406;2023-08-06T04:22:19;3.05;;;1.83;;
79539;SDS011;68991;52.122;5.406;2023-08-06T04:24:46;2.78;;;1.85;;
79539;SDS011;68991;52.122;5.406;2023-08-06T04:27:14;3.40;;;1.83;;
79539;SDS011;68991;52.122;5.406;2023-08-06T04:29:41;3.10;;;1.67;;
79539;SDS011;68991;52.122;5.406;2023-08-06T04:32:08;3.35;;;1.90;;
79539;SDS011;68991;52.122;5.406;2023-08-06T04:34:36;2.78;;;1.80;;
79539;SDS011;68991;52.122;5.406;2023-08-06T04:37:04;3.10;;;1.88;;
79539;SDS011;68991;52.122;5.406;2023-08-06T04:39:31;3.08;;;1.70;;
79539;SDS011;68991;52.122;5.406;2023-08-06T04:41:58;2.63;;;1.77;;
79539;SDS011;68991;52.122;5.406;2023-08-06T04:44:24;2.20;;;1.60;;
79539;SDS011;68991;52.122;5.406;2023-08-06T04:46:51;2.78;;;2.20;;
79539;SDS011;68991;52.122;5.406;2023-08-06T04:49:18;2.92;;;1.67;;
79539;SDS011;68991;52.122;5.406;2023-08-06T04:51:47;2.13;;;1.63;;
79539;SDS011;68991;52.122;5.406;2023-08-06T04:54:14;3.75;;;1.73;;
79539;SDS011;68991;52.122;5.406;2023-08-06T04:56:40;3.05;;;1.98;;
79539;SDS011;68991;52.122;5.406;2023-08-06T04:59:07;2.38;;;1.75;;
79539;SDS011;68991;52.122;5.406;2023-08-06T05:01:33;2.58;;;1.77;;
79539;SDS011;68991;52.122;5.406;2023-08-06T05:04:00;3.85;;;1.70;;
79539;SDS011;68991;52.122;5.406;2023-08-06T05:06:26;3.00;;;2.00;;
79539;SDS011;68991;52.122;5.406;2023-08-06T05:08:53;2.83;;;1.95;;
79539;SDS011;68991;52.122;5.406;2023-08-06T05:11:19;3.05;;;1.88;;
79539;SDS011;68991;52.122;5.406;2023-08-06T05:13:46;3.35;;;2.00;;
79539;SDS011;68991;52.122;5.406;2023-08-06T05:16:12;2.63;;;1.70;;
79539;SDS011;68991;52.122;5.406;2023-08-06T05:18:39;3.05;;;1.70;;
79539;SDS011;68991;52.122;5.406;2023-08-06T05:21:05;4.65;;;1.80;;
79539;SDS011;68991;52.122;5.406;2023-08-06T05:23:32;2.88;;;1.88;;
79539;SDS011;68991;52.122;5.406;2023-08-06T05:25:58;3.20;;;1.92;;
79539;SDS011;68991;52.122;5.406;2023-08-06T05:28:25;2.47;;;1.65;;
79539;SDS011;68991;52.122;5.406;2023-08-06T05:30:51;3.65;;;2.00;;
79539;SDS011;68991;52.122;5.406;2023-08-06T05:33:18;2.80;;;1.90;;
79539;SDS011;68991;52.122;5.406;2023-08-06T05:35:44;4.10;;;1.90;;
79539;SDS011;68991;52.122;5.406;2023-08-06T05:38:11;3.08;;;1.77;;
79539;SDS011;68991;52.122;5.406;2023-08-06T05:40:37;3.45;;;1.70;;
79539;SDS011;68991;52.122;5.406;2023-08-06T05:43:04;3.10;;;1.73;;
79539;SDS011;68991;52.122;5.406;2023-08-06T05:45:30;3.03;;;1.85;;
79539;SDS011;68991;52.122;5.406;2023-08-06T05:47:57;2.95;;;1.85;;
79539;SDS011;68991;52.122;5.406;2023-08-06T05:50:24;2.80;;;1.75;;
79539;SDS011;68991;52.122;5.406;2023-08-06T05:52:51;2.53;;;1.80;;
79539;SDS011;68991;52.122;5.406;2023-08-06T05:55:19;2.47;;;1.85;;
79539;SDS011;68991;52.122;5.406;2023-08-06T05:57:46;3.03;;;1.92;;
79539;SDS011;68991;52.122;5.406;2023-08-06T06:00:13;2.78;;;2.00;;
79539;SDS011;68991;52.122;5.406;2023-08-06T06:02:39;2.75;;;1.60;;
79539;SDS011;68991;52.122;5.406;2023-08-06T06:05:06;2.63;;;1.80;;
79539;SDS011;68991;52.122;5.406;2023-08-06T06:07:32;2.55;;;1.77;;
79539;SDS011;68991;52.122;5.406;2023-08-06T06:09:59;3.33;;;1.67;;
79539;SDS011;68991;52.122;5.406;2023-08-06T06:12:25;2.88;;;1.83;;
79539;SDS011;68991;52.122;5.406;2023-08-06T06:14:52;2.70;;;1.55;;
79539;SDS011;68991;52.122;5.406;2023-08-06T06:17:18;3.90;;;1.90;;
79539;SDS011;68991;52.122;5.406;2023-08-06T06:19:45;3.33;;;1.92;;
79539;SDS011;68991;52.122;5.406;2023-08-06T06:22:13;3.22;;;2.00;;
79539;SDS011;68991;52.122;5.406;2023-08-06T06:24:39;3.75;;;1.90;;
79539;SDS011;68991;52.122;5.406;2023-08-06T06:27:06;3.78;;;2.25;;
79539;SDS011;68991;52.122;5.406;2023-08-06T06:29:32;7.45;;;2.58;;
79539;SDS011;68991;52.122;5.406;2023-08-06T06:31:59;4.18;;;2.13;;
79539;SDS011;68991;52.122;5.406;2023-08-06T06:34:25;3.28;;;2.00;;
79539;SDS011;68991;52.122;5.406;2023-08-06T06:36:52;4.78;;;2.05;;
79539;SDS011;68991;52.122;5.406;2023-08-06T06:39:18;4.43;;;2.22;;
79539;SDS011;68991;52.122;5.406;2023-08-06T06:41:45;3.50;;;2.03;;
79539;SDS011;68991;52.122;5.406;2023-08-06T06:44:11;2.47;;;1.80;;
79539;SDS011;68991;52.122;5.406;2023-08-06T06:46:39;3.72;;;1.70;;
79539;SDS011;68991;52.122;5.406;2023-08-06T06:49:05;3.03;;;1.90;;
79539;SDS011;68991;52.122;5.406;2023-08-06T06:51:32;3.25;;;1.65;;
79539;SDS011;68991;52.122;5.406;2023-08-06T06:53:59;2.80;;;1.73;;
79539;SDS011;68991;52.122;5.406;2023-08-06T06:56:25;2.25;;;1.60;;
79539;SDS011;68991;52.122;5.406;2023-08-06T06:58:52;4.25;;;2.08;;
79539;SDS011;68991;52.122;5.406;2023-08-06T07:01:18;5.60;;;2.10;;
79539;SDS011;68991;52.122;5.406;2023-08-06T07:03:45;4.13;;;1.80;;
79539;SDS011;68991;52.122;5.406;2023-08-06T07:06:11;4.97;;;1.95;;
79539;SDS011;68991;52.122;5.406;2023-08-06T07:08:38;2.50;;;2.05;;
79539;SDS011;68991;52.122;5.406;2023-08-06T07:11:05;2.60;;;2.00;;
79539;SDS011;68991;52.122;5.406;2023-08-06T07:13:33;3.60;;;1.90;;
79539;SDS011;68991;52.122;5.406;2023-08-06T07:16:00;2.42;;;1.70;;
79539;SDS011;68991;52.122;5.406;2023-08-06T07:18:27;3.70;;;1.90;;
79539;SDS011;68991;52.122;5.406;2023-08-06T07:20:54;6.95;;;2.03;;
79539;SDS011;68991;52.122;5.406;2023-08-06T07:23:22;2.53;;;1.80;;
79539;SDS011;68991;52.122;5.406;2023-08-06T07:25:50;2.15;;;1.75;;
79539;SDS011;68991;52.122;5.406;2023-08-06T07:28:16;4.30;;;1.88;;
79539;SDS011;68991;52.122;5.406;2023-08-06T07:30:44;3.28;;;1.92;;
79539;SDS011;68991;52.122;5.406;2023-08-06T07:33:11;2.60;;;1.80;;
79539;SDS011;68991;52.122;5.406;2023-08-06T07:35:38;2.13;;;1.60;;
79539;SDS011;68991;52.122;5.406;2023-08-06T07:38:05;3.35;;;1.80;;
79539;SDS011;68991;52.122;5.406;2023-08-06T07:40:32;3.13;;;1.90;;
79539;SDS011;68991;52.122;5.406;2023-08-06T07:42:58;2.95;;;1.98;;
79539;SDS011;68991;52.122;5.406;2023-08-06T07:45:25;2.45;;;1.60;;
79539;SDS011;68991;52.122;5.406;2023-08-06T07:47:53;3.88;;;1.83;;
79539;SDS011;68991;52.122;5.406;2023-08-06T07:50:20;2.75;;;1.90;;
79539;SDS011;68991;52.122;5.406;2023-08-06T07:52:46;2.08;;;1.60;;
79539;SDS011;68991;52.122;5.406;2023-08-06T07:55:13;2.70;;;1.75;;
79539;SDS011;68991;52.122;5.406;2023-08-06T07:57:39;4.25;;;2.08;;
79539;SDS011;68991;52.122;5.406;2023-08-06T08:00:06;2.83;;;1.83;;
79539;SDS011;68991;52.122;5.406;2023-08-06T08:02:33;2.80;;;2.15;;
79539;SDS011;68991;52.122;5.406;2023-08-06T08:04:59;3.17;;;1.80;;
79539;SDS011;68991;52.122;5.406;2023-08-06T08:07:26;3.13;;;1.70;;
79539;SDS011;68991;52.122;5.406;2023-08-06T08:09:55;2.88;;;1.95;;
79539;SDS011;68991;52.122;5.406;2023-08-06T08:12:21;3.45;;;1.73;;
79539;SDS011;68991;52.122;5.406;2023-08-06T08:14:48;3.17;;;1.98;;
79539;SDS011;68991;52.122;5.406;2023-08-06T08:17:14;2.22;;;1.60;;
79539;SDS011;68991;52.122;5.406;2023-08-06T08:19:41;2.28;;;1.52;;
79539;SDS011;68991;52.122;5.406;2023-08-06T08:22:07;3.83;;;1.70;;
79539;SDS011;68991;52.122;5.406;2023-08-06T08:24:34;2.42;;;1.67;;
79539;SDS011;68991;52.122;5.406;2023-08-06T08:27:01;2.97;;;1.80;;
79539;SDS011;68991;52.122;5.406;2023-08-06T08:29:27;3.42;;;1.88;;
79539;SDS011;68991;52.122;5.406;2023-08-06T08:31:53;2.85;;;1.70;;
79539;SDS011;68991;52.122;5.406;2023-08-06T08:34:20;3.17;;;1.55;;
79539;SDS011;68991;52.122;5.406;2023-08-06T08:36:47;2.08;;;1.80;;
79539;SDS011;68991;52.122;5.406;2023-08-06T08:39:13;2.53;;;1.65;;
79539;SDS011;68991;52.122;5.406;2023-08-06T08:41:40;2.20;;;1.50;;
79539;SDS011;68991;52.122;5.406;2023-08-06T08:44:08;2.97;;;1.52;;
79539;SDS011;68991;52.122;5.406;2023-08-06T08:46:40;3.55;;;1.70;;
79539;SDS011;68991;52.122;5.406;2023-08-06T08:49:07;2.63;;;1.58;;
79539;SDS011;68991;52.122;5.406;2023-08-06T08:51:34;2.63;;;1.85;;
79539;SDS011;68991;52.122;5.406;2023-08-06T08:54:04;2.10;;;1.33;;
79539;SDS011;68991;52.122;5.406;2023-08-06T08:56:31;1.98;;;1.50;;
79539;SDS011;68991;52.122;5.406;2023-08-06T08:58:58;2.72;;;1.83;;
79539;SDS011;68991;52.122;5.406;2023-08-06T09:01:25;1.95;;;1.48;;
79539;SDS011;68991;52.122;5.406;2023-08-06T09:03:53;3.22;;;1.70;;
79539;SDS011;68991;52.122;5.406;2023-08-06T09:06:21;2.38;;;1.40;;
79539;SDS011;68991;52.122;5.406;2023-08-06T09:08:54;2.05;;;1.45;;
79539;SDS011;68991;52.122;5.406;2023-08-06T09:11:28;2.40;;;1.45;;
79539;SDS011;68991;52.122;5.406;2023-08-06T09:14:08;2.83;;;1.52;;
79539;SDS011;68991;52.122;5.406;2023-08-06T09:16:35;1.70;;;1.40;;
79539;SDS011;68991;52.122;5.406;2023-08-06T09:19:11;2.67;;;1.45;;
79539;SDS011;68991;52.122;5.406;2023-08-06T09:21:39;2.10;;;1.52;;
79539;SDS011;68991;52.122;5.406;2023-08-06T09:24:10;2.08;;;1.30;;
79539;SDS011;68991;52.122;5.406;2023-08-06T09:26:38;2.00;;;1.30;;
79539;SDS011;68991;52.122;5.406;2023-08-06T09:29:06;2.08;;;1.23;;
79539;SDS011;68991;52.122;5.406;2023-08-06T09:34:11;2.67;;;1.40;;
79539;SDS011;68991;52.122;5.406;2023-08-06T09:36:46;2.10;;;1.38;;
79539;SDS011;68991;52.122;5.406;2023-08-06T09:39:18;1.80;;;1.40;;
79539;SDS011;68991;52.122;5.406;2023-08-06T09:41:45;1.98;;;1.33;;
79539;SDS011;68991;52.122;5.406;2023-08-06T09:44:19;1.75;;;1.20;;
79539;SDS011;68991;52.122;5.406;2023-08-06T09:46:48;2.85;;;1.33;;
79539;SDS011;68991;52.122;5.406;2023-08-06T09:49:17;2.17;;;1.65;;
79539;SDS011;68991;52.122;5.406;2023-08-06T09:51:47;2.10;;;1.42;;
79539;SDS011;68991;52.122;5.406;2023-08-06T09:54:17;1.63;;;1.30;;
79539;SDS011;68991;52.122;5.406;2023-08-06T09:56:53;1.90;;;1.30;;
79539;SDS011;68991;52.122;5.406;2023-08-06T09:59:20;1.98;;;1.30;;
79539;SDS011;68991;52.122;5.406;2023-08-06T10:01:47;3.45;;;1.25;;
79539;SDS011;68991;52.122;5.406;2023-08-06T10:04:14;2.75;;;1.40;;
79539;SDS011;68991;52.122;5.406;2023-08-06T10:06:49;2.47;;;1.50;;
79539;SDS011;68991;52.122;5.406;2023-08-06T10:09:16;1.70;;;1.17;;
79539;SDS011;68991;52.122;5.406;2023-08-06T10:11:44;2.78;;;1.33;;
79539;SDS011;68991;52.122;5.406;2023-08-06T10:14:28;1.55;;;1.23;;
79539;SDS011;68991;52.122;5.406;2023-08-06T10:16:59;1.98;;;1.30;;
79539;SDS011;68991;52.122;5.406;2023-08-06T10:19:26;2.53;;;1.65;;
79539;SDS011;68991;52.122;5.406;2023-08-06T10:22:09;2.25;;;1.55;;
79539;SDS011;68991;52.122;5.406;2023-08-06T10:32:54;2.08;;;1.30;;
79539;SDS011;68991;52.122;5.406;2023-08-06T10:35:30;2.03;;;1.20;;
79539;SDS011;68991;52.122;5.406;2023-08-06T10:38:03;2.13;;;1.30;;
79539;SDS011;68991;52.122;5.406;2023-08-06T10:40:32;1.95;;;1.20;;
79539;SDS011;68991;52.122;5.406;2023-08-06T10:43:00;1.90;;;1.40;;
79539;SDS011;68991;52.122;5.406;2023-08-06T10:45:27;2.53;;;1.40;;
79539;SDS011;68991;52.122;5.406;2023-08-06T10:47:55;2.45;;;1.45;;
79539;SDS011;68991;52.122;5.406;2023-08-06T10:50:23;2.20;;;1.52;;
79539;SDS011;68991;52.122;5.406;2023-08-06T10:52:50;2.20;;;1.52;;
79539;SDS011;68991;52.122;5.406;2023-08-06T10:55:24;2.40;;;1.40;;
79539;SDS011;68991;52.122;5.406;2023-08-06T10:57:52;2.08;;;1.30;;
79539;SDS011;68991;52.122;5.406;2023-08-06T11:00:23;1.90;;;1.25;;
79539;SDS011;68991;52.122;5.406;2023-08-06T11:02:50;1.70;;;1.15;;
79539;SDS011;68991;52.122;5.406;2023-08-06T11:05:17;3.42;;;1.30;;
79539;SDS011;68991;52.122;5.406;2023-08-06T11:07:44;1.90;;;1.20;;
79539;SDS011;68991;52.122;5.406;2023-08-06T11:10:11;2.60;;;1.48;;
79539;SDS011;68991;52.122;5.406;2023-08-06T11:12:39;2.17;;;1.20;;
79539;SDS011;68991;52.122;5.406;2023-08-06T11:15:06;2.75;;;1.50;;
79539;SDS011;68991;52.122;5.406;2023-08-06T11:17:33;2.85;;;1.60;;
79539;SDS011;68991;52.122;5.406;2023-08-06T11:20:03;2.10;;;1.38;;
79539;SDS011;68991;52.122;5.406;2023-08-06T11:22:31;1.98;;;1.38;;
79539;SDS011;68991;52.122;5.406;2023-08-06T11:24:57;2.22;;;1.63;;
79539;SDS011;68991;52.122;5.406;2023-08-06T11:27:25;2.70;;;1.40;;
79539;SDS011;68991;52.122;5.406;2023-08-06T11:29:53;2.03;;;1.38;;
79539;SDS011;68991;52.122;5.406;2023-08-06T11:32:19;2.08;;;1.50;;
79539;SDS011;68991;52.122;5.406;2023-08-06T11:34:46;1.63;;;1.15;;
79539;SDS011;68991;52.122;5.406;2023-08-06T11:37:12;2.47;;;1.33;;
79539;SDS011;68991;52.122;5.406;2023-08-06T11:39:39;2.00;;;1.35;;
79539;SDS011;68991;52.122;5.406;2023-08-06T11:42:12;1.80;;;1.27;;
79539;SDS011;68991;52.122;5.406;2023-08-06T11:44:40;1.88;;;1.17;;
79539;SDS011;68991;52.122;5.406;2023-08-06T11:47:15;2.38;;;1.50;;
79539;SDS011;68991;52.122;5.406;2023-08-06T11:49:46;2.13;;;1.40;;
79539;SDS011;68991;52.122;5.406;2023-08-06T11:52:18;1.73;;;1.30;;
79539;SDS011;68991;52.122;5.406;2023-08-06T11:54:46;2.80;;;1.58;;
79539;SDS011;68991;52.122;5.406;2023-08-06T11:57:14;2.30;;;1.25;;
79539;SDS011;68991;52.122;5.406;2023-08-06T11:59:43;1.80;;;1.13;;
79539;SDS011;68991;52.122;5.406;2023-08-06T12:02:10;2.92;;;1.30;;
79539;SDS011;68991;52.122;5.406;2023-08-06T12:07:28;2.58;;;1.30;;
79539;SDS011;68991;52.122;5.406;2023-08-06T12:09:55;1.60;;;1.02;;
79539;SDS011;68991;52.122;5.406;2023-08-06T12:12:22;2.03;;;1.33;;
79539;SDS011;68991;52.122;5.406;2023-08-06T12:14:49;2.53;;;1.30;;
79539;SDS011;68991;52.122;5.406;2023-08-06T12:17:16;2.58;;;1.20;;
79539;SDS011;68991;52.122;5.406;2023-08-06T12:19:44;2.03;;;1.20;;
79539;SDS011;68991;52.122;5.406;2023-08-06T12:22:12;2.20;;;1.50;;
79539;SDS011;68991;52.122;5.406;2023-08-06T12:24:42;2.13;;;1.20;;
79539;SDS011;68991;52.122;5.406;2023-08-06T12:27:10;1.63;;;1.25;;
79539;SDS011;68991;52.122;5.406;2023-08-06T12:29:37;2.00;;;1.13;;
79539;SDS011;68991;52.122;5.406;2023-08-06T12:34:33;2.40;;;1.50;;
79539;SDS011;68991;52.122;5.406;2023-08-06T12:37:16;2.28;;;1.30;;
79539;SDS011;68991;52.122;5.406;2023-08-06T12:39:42;1.60;;;1.10;;
79539;SDS011;68991;52.122;5.406;2023-08-06T12:42:09;2.80;;;1.42;;
79539;SDS011;68991;52.122;5.406;2023-08-06T12:44:36;2.47;;;1.20;;
79539;SDS011;68991;52.122;5.406;2023-08-06T12:47:03;3.05;;;1.55;;
79539;SDS011;68991;52.122;5.406;2023-08-06T12:49:30;2.50;;;1.40;;
79539;SDS011;68991;52.122;5.406;2023-08-06T12:51:57;2.35;;;1.30;;
79539;SDS011;68991;52.122;5.406;2023-08-06T12:54:26;1.92;;;1.50;;
79539;SDS011;68991;52.122;5.406;2023-08-06T12:56:53;3.50;;;1.05;;
79539;SDS011;68991;52.122;5.406;2023-08-06T12:59:20;1.55;;;1.02;;
79539;SDS011;68991;52.122;5.406;2023-08-06T13:01:47;1.73;;;1.25;;
79539;SDS011;68991;52.122;5.406;2023-08-06T13:04:14;1.50;;;1.10;;
79539;SDS011;68991;52.122;5.406;2023-08-06T13:06:47;1.75;;;1.20;;
79539;SDS011;68991;52.122;5.406;2023-08-06T13:09:15;1.85;;;1.10;;
79539;SDS011;68991;52.122;5.406;2023-08-06T13:11:42;1.90;;;1.20;;
79539;SDS011;68991;52.122;5.406;2023-08-06T13:16:40;1.65;;;1.08;;
79539;SDS011;68991;52.122;5.406;2023-08-06T13:19:08;2.08;;;1.42;;
79539;SDS011;68991;52.122;5.406;2023-08-06T13:24:04;1.77;;;1.20;;
79539;SDS011;68991;52.122;5.406;2023-08-06T13:26:30;2.30;;;1.20;;
79539;SDS011;68991;52.122;5.406;2023-08-06T13:28:57;1.85;;;1.20;;
79539;SDS011;68991;52.122;5.406;2023-08-06T13:31:24;1.65;;;1.20;;
79539;SDS011;68991;52.122;5.406;2023-08-06T13:33:52;1.67;;;1.05;;
79539;SDS011;68991;52.122;5.406;2023-08-06T13:36:21;1.65;;;1.05;;
79539;SDS011;68991;52.122;5.406;2023-08-06T13:38:48;1.83;;;1.10;;
79539;SDS011;68991;52.122;5.406;2023-08-06T13:41:15;2.15;;;1.05;;
79539;SDS011;68991;52.122;5.406;2023-08-06T13:43:42;1.73;;;1.13;;
79539;SDS011;68991;52.122;5.406;2023-08-06T13:46:10;2.50;;;1.40;;
79539;SDS011;68991;52.122;5.406;2023-08-06T13:48:47;1.83;;;1.10;;
79539;SDS011;68991;52.122;5.406;2023-08-06T13:51:17;1.92;;;1.10;;
79539;SDS011;68991;52.122;5.406;2023-08-06T13:53:44;2.58;;;1.15;;
79539;SDS011;68991;52.122;5.406;2023-08-06T13:56:11;1.67;;;0.90;;
79539;SDS011;68991;52.122;5.406;2023-08-06T13:58:38;2.00;;;1.17;;
79539;SDS011;68991;52.122;5.406;2023-08-06T14:01:05;2.22;;;1.10;;
79539;SDS011;68991;52.122;5.406;2023-08-06T14:03:32;1.50;;;1.00;;
79539;SDS011;68991;52.122;5.406;2023-08-06T14:05:59;2.13;;;1.15;;
79539;SDS011;68991;52.122;5.406;2023-08-06T14:08:26;2.38;;;1.15;;
79539;SDS011;68991;52.122;5.406;2023-08-06T14:10:53;1.65;;;1.00;;
79539;SDS011;68991;52.122;5.406;2023-08-06T14:13:20;1.70;;;1.00;;
79539;SDS011;68991;52.122;5.406;2023-08-06T14:15:48;1.55;;;0.98;;
79539;SDS011;68991;52.122;5.406;2023-08-06T14:18:15;2.05;;;1.20;;
79539;SDS011;68991;52.122;5.406;2023-08-06T14:20:42;1.83;;;1.00;;
79539;SDS011;68991;52.122;5.406;2023-08-06T14:23:09;1.83;;;1.30;;
79539;SDS011;68991;52.122;5.406;2023-08-06T14:25:37;3.08;;;1.13;;
79539;SDS011;68991;52.122;5.406;2023-08-06T14:28:05;1.55;;;0.95;;
79539;SDS011;68991;52.122;5.406;2023-08-06T14:30:33;1.50;;;0.90;;
79539;SDS011;68991;52.122;5.406;2023-08-06T14:33:00;1.92;;;1.05;;
79539;SDS011;68991;52.122;5.406;2023-08-06T14:35:46;2.60;;;1.30;;
79539;SDS011;68991;52.122;5.406;2023-08-06T14:38:13;1.98;;;0.93;;
79539;SDS011;68991;52.122;5.406;2023-08-06T14:40:39;1.75;;;1.20;;
79539;SDS011;68991;52.122;5.406;2023-08-06T14:43:06;1.80;;;1.00;;
79539;SDS011;68991;52.122;5.406;2023-08-06T14:45:33;2.15;;;1.27;;
79539;SDS011;68991;52.122;5.406;2023-08-06T14:47:59;1.50;;;1.00;;
79539;SDS011;68991;52.122;5.406;2023-08-06T14:50:26;1.55;;;1.00;;
79539;SDS011;68991;52.122;5.406;2023-08-06T14:52:52;1.73;;;1.17;;
79539;SDS011;68991;52.122;5.406;2023-08-06T14:55:25;2.13;;;0.98;;
79539;SDS011;68991;52.122;5.406;2023-08-06T14:57:52;2.55;;;1.10;;
79539;SDS011;68991;52.122;5.406;2023-08-06T15:00:19;1.70;;;1.10;;
79539;SDS011;68991;52.122;5.406;2023-08-06T15:02:46;1.90;;;1.00;;
79539;SDS011;68991;52.122;5.406;2023-08-06T15:05:13;1.75;;;1.00;;
79539;SDS011;68991;52.122;5.406;2023-08-06T15:07:40;1.95;;;1.10;;
79539;SDS011;68991;52.122;5.406;2023-08-06T15:10:06;2.10;;;0.90;;
79539;SDS011;68991;52.122;5.406;2023-08-06T15:12:52;1.88;;;0.98;;
79539;SDS011;68991;52.122;5.406;2023-08-06T15:15:18;1.95;;;1.02;;
79539;SDS011;68991;52.122;5.406;2023-08-06T15:17:45;2.45;;;1.10;;